Time;durP1;ratioP1;P1;durP2;ratioP2;P2;SDS_P1;SDS_P2;PMS_P1;PMS_P2;Temp;Humidity;BMP_temperature;BMP_pressure;BME280_temperature;BME280_humidity;BME280_pressure;Samples;Min_cycle;Max_cycle;Signal;HPM_P1;HPM_P2
2023/11/07 00:00:58;;;;;;;1.80;0.80;;;11.20;99.90;;;;;;5073197;28;20646;-73
2023/11/07 00:03:24;;;;;;;2.17;1.00;;;11.20;99.90;;;;;;5049312;28;20639;-73
2023/11/07 00:05:50;;;;;;;1.70;0.70;;;11.30;99.90;;;;;;5069856;28;20169;-74
2023/11/07 00:08:15;;;;;;;2.60;0.70;;;11.30;99.90;;;;;;5046284;28;20219;-74
2023/11/07 00:10:41;;;;;;;2.93;0.70;;;11.30;99.90;;;;;;5072852;28;20175;-75
2023/11/07 00:13:07;;;;;;;1.90;0.60;;;11.30;99.90;;;;;;5054958;28;20642;-73
2023/11/07 00:15:33;;;;;;;2.70;0.70;;;11.30;99.90;;;;;;5067469;28;20197;-73
2023/11/07 00:17:59;;;;;;;2.05;0.70;;;11.30;99.90;;;;;;5045022;28;20263;-73
2023/11/07 00:20:24;;;;;;;2.63;0.77;;;11.20;99.90;;;;;;5063951;28;20180;-74
2023/11/07 00:22:50;;;;;;;1.60;0.63;;;11.20;99.90;;;;;;5053965;28;20177;-73
2023/11/07 00:25:16;;;;;;;1.80;0.80;;;11.20;99.90;;;;;;5050935;28;20168;-73
2023/11/07 00:27:42;;;;;;;3.90;1.20;;;11.20;99.90;;;;;;5055066;28;20265;-73
2023/11/07 00:30:08;;;;;;;1.97;1.00;;;11.20;99.90;;;;;;5029745;28;20185;-74
2023/11/07 00:32:34;;;;;;;4.30;0.63;;;11.10;99.90;;;;;;5042285;28;20188;-73
2023/11/07 00:34:59;;;;;;;1.43;0.60;;;11.10;99.90;;;;;;5033267;28;20667;-73
2023/11/07 00:37:25;;;;;;;3.27;0.93;;;11.10;99.90;;;;;;5024311;28;20545;-74
2023/11/07 00:39:51;;;;;;;2.50;0.80;;;11.10;99.90;;;;;;5059533;28;20180;-73
2023/11/07 00:42:16;;;;;;;1.90;0.70;;;11.10;99.90;;;;;;5037995;28;20196;-74
2023/11/07 00:44:43;;;;;;;5.40;0.80;;;11.10;99.90;;;;;;5038121;28;20181;-74
2023/11/07 00:47:09;;;;;;;3.85;0.70;;;11.10;99.90;;;;;;5060116;28;20948;-74
2023/11/07 00:49:35;;;;;;;3.63;0.70;;;11.10;99.90;;;;;;5040071;28;20197;-73
2023/11/07 00:52:01;;;;;;;1.20;0.50;;;11.10;99.90;;;;;;5045281;28;20172;-74
2023/11/07 00:54:27;;;;;;;1.93;0.60;;;11.10;99.90;;;;;;5031640;28;20275;-73
2023/11/07 00:56:52;;;;;;;1.40;0.57;;;11.10;99.90;;;;;;5041856;28;20226;-74
2023/11/07 00:59:18;;;;;;;1.40;0.60;;;11.10;99.90;;;;;;5045433;28;20188;-73
2023/11/07 01:01:44;;;;;;;1.33;0.60;;;11.00;99.90;;;;;;5057459;28;20165;-73
2023/11/07 01:04:10;;;;;;;2.10;0.80;;;11.00;99.90;;;;;;5057478;28;20196;-74
2023/11/07 01:06:35;;;;;;;3.30;1.23;;;11.00;99.90;;;;;;5051656;28;20589;-75
2023/11/07 01:09:03;;;;;;;1.43;0.70;;;11.00;99.90;;;;;;5059003;28;20636;-73
2023/11/07 01:11:30;;;;;;;2.15;0.70;;;11.00;99.90;;;;;;5034121;28;20173;-73
2023/11/07 01:13:56;;;;;;;1.60;0.70;;;10.90;99.90;;;;;;5038099;28;20205;-74
2023/11/07 01:16:21;;;;;;;2.33;0.70;;;10.90;99.90;;;;;;5042587;28;20165;-74
2023/11/07 01:18:47;;;;;;;2.75;0.80;;;10.90;99.90;;;;;;5034960;28;20227;-74
2023/11/07 01:21:13;;;;;;;3.10;0.60;;;10.80;99.90;;;;;;5046468;28;20535;-74
2023/11/07 01:23:41;;;;;;;1.95;0.80;;;10.80;99.90;;;;;;5044165;28;20165;-73
2023/11/07 01:26:09;;;;;;;2.05;0.60;;;10.80;99.90;;;;;;5042848;28;20664;-74
2023/11/07 01:28:35;;;;;;;1.40;0.60;;;10.80;99.90;;;;;;5056387;28;20238;-75
2023/11/07 01:31:03;;;;;;;2.17;0.90;;;10.70;99.90;;;;;;5033949;28;20252;-75
2023/11/07 01:33:29;;;;;;;1.85;0.60;;;10.70;99.90;;;;;;5037178;28;20263;-74
2023/11/07 01:35:55;;;;;;;2.17;0.60;;;10.70;99.90;;;;;;5044213;28;20235;-74
2023/11/07 01:38:21;;;;;;;1.90;0.73;;;10.60;99.90;;;;;;5043871;28;20238;-76
2023/11/07 01:40:47;;;;;;;1.80;0.70;;;10.60;99.90;;;;;;5058725;28;20168;-73
2023/11/07 01:43:14;;;;;;;2.23;0.63;;;10.60;99.90;;;;;;5071931;28;20680;-74
2023/11/07 01:45:41;;;;;;;1.92;0.77;;;10.50;99.90;;;;;;5050375;28;20184;-73
2023/11/07 01:48:08;;;;;;;1.98;0.60;;;10.50;99.90;;;;;;5022007;28;20200;-73
2023/11/07 01:50:36;;;;;;;2.15;0.60;;;10.50;99.90;;;;;;5056186;28;20172;-74
2023/11/07 01:53:03;;;;;;;2.70;0.73;;;10.50;99.90;;;;;;5036044;28;20767;-73
2023/11/07 01:55:30;;;;;;;2.58;1.23;;;10.50;99.90;;;;;;5049821;28;20204;-74
2023/11/07 01:58:00;;;;;;;1.70;0.70;;;10.50;99.90;;;;;;5052415;28;20187;-73
2023/11/07 02:00:28;;;;;;;1.73;0.70;;;10.50;99.90;;;;;;5036894;28;20168;-74
2023/11/07 02:02:55;;;;;;;2.25;0.80;;;10.40;99.90;;;;;;5030768;28;20180;-74
2023/11/07 02:05:20;;;;;;;2.28;0.60;;;10.40;99.90;;;;;;5021391;28;20164;-74
2023/11/07 02:07:46;;;;;;;2.33;0.70;;;10.40;99.90;;;;;;5035619;28;20879;-74
2023/11/07 02:10:13;;;;;;;1.90;0.70;;;10.50;99.90;;;;;;5034404;28;20189;-74
2023/11/07 02:12:39;;;;;;;2.70;0.75;;;10.40;99.90;;;;;;5049060;28;20202;-75
2023/11/07 02:15:38;;;;;;;1.80;0.77;;;10.40;99.90;;;;;;5035874;28;20855;-74
2023/11/07 02:18:04;;;;;;;1.55;0.60;;;10.40;99.90;;;;;;4997626;28;21218;-74
2023/11/07 02:20:31;;;;;;;2.75;0.80;;;10.40;99.90;;;;;;5055074;28;20168;-74
2023/11/07 02:23:03;;;;;;;2.70;0.70;;;10.40;99.90;;;;;;5039427;28;20176;-74
2023/11/07 02:25:29;;;;;;;4.53;0.90;;;10.40;99.90;;;;;;5069073;28;20277;-75
2023/11/07 02:27:54;;;;;;;2.20;0.90;;;10.40;99.90;;;;;;5019521;28;20232;-75
2023/11/07 02:30:20;;;;;;;1.87;0.70;;;10.40;99.90;;;;;;5023186;28;20184;-75
2023/11/07 02:32:46;;;;;;;2.37;0.80;;;10.40;99.90;;;;;;5056198;28;20699;-75
2023/11/07 02:35:12;;;;;;;3.43;0.80;;;10.40;99.90;;;;;;5050904;28;20207;-74
2023/11/07 02:37:39;;;;;;;1.40;0.73;;;10.40;99.90;;;;;;5033005;28;20196;-75
2023/11/07 02:40:06;;;;;;;3.58;0.93;;;10.40;99.90;;;;;;5020347;28;20263;-74
2023/11/07 02:42:33;;;;;;;2.50;0.70;;;10.40;99.90;;;;;;5039433;28;20172;-75
2023/11/07 02:44:59;;;;;;;4.63;0.80;;;10.40;99.90;;;;;;5055641;28;20199;-74
2023/11/07 02:47:25;;;;;;;2.33;0.80;;;10.40;99.90;;;;;;5039021;28;20176;-74
2023/11/07 02:49:51;;;;;;;1.90;0.70;;;10.40;99.90;;;;;;5031369;28;20592;-74
2023/11/07 02:52:18;;;;;;;2.73;0.80;;;10.40;99.90;;;;;;5038391;28;20183;-74
2023/11/07 02:54:45;;;;;;;5.95;1.90;;;10.50;99.90;;;;;;5072998;28;21440;-74
2023/11/07 02:57:11;;;;;;;2.00;0.60;;;10.40;99.90;;;;;;5037297;28;20517;-75
2023/11/07 02:59:36;;;;;;;1.73;0.70;;;10.50;99.90;;;;;;5032442;28;20192;-75
2023/11/07 03:02:03;;;;;;;1.30;0.60;;;10.50;99.90;;;;;;5056977;28;20572;-74
2023/11/07 03:04:29;;;;;;;2.03;0.65;;;10.50;99.90;;;;;;5051400;28;20172;-74
2023/11/07 03:06:55;;;;;;;2.58;0.70;;;10.50;99.90;;;;;;5015799;28;20227;-74
2023/11/07 03:09:21;;;;;;;2.17;0.80;;;10.50;99.90;;;;;;5035417;28;20200;-74
2023/11/07 03:11:46;;;;;;;1.50;0.70;;;10.50;99.90;;;;;;5035545;28;20583;-75
2023/11/07 03:14:12;;;;;;;2.83;0.70;;;10.50;99.90;;;;;;5035624;28;20310;-74
2023/11/07 03:16:40;;;;;;;2.33;0.77;;;10.50;99.90;;;;;;5035550;28;20220;-75
2023/11/07 03:19:07;;;;;;;2.95;0.70;;;10.40;99.90;;;;;;5035313;28;20685;-74
2023/11/07 03:21:35;;;;;;;2.63;0.60;;;10.50;99.90;;;;;;5035428;28;20180;-75
2023/11/07 03:24:03;;;;;;;2.65;0.70;;;10.50;99.90;;;;;;5038241;28;20262;-74
2023/11/07 03:26:29;;;;;;;1.75;0.88;;;10.50;99.90;;;;;;5018272;28;20173;-75
2023/11/07 03:28:55;;;;;;;1.60;0.70;;;10.50;99.90;;;;;;5035020;28;20541;-73
2023/11/07 03:31:21;;;;;;;1.40;0.60;;;10.50;99.90;;;;;;5034442;28;20947;-73
2023/11/07 03:33:46;;;;;;;1.63;0.63;;;10.50;99.90;;;;;;5043174;28;20264;-73
2023/11/07 03:36:15;;;;;;;1.80;0.97;;;10.50;99.90;;;;;;5035147;28;20812;-74
2023/11/07 03:38:43;;;;;;;4.60;0.80;;;10.50;99.90;;;;;;5052810;28;20217;-74
2023/11/07 03:41:09;;;;;;;1.98;0.80;;;10.40;99.90;;;;;;5036415;28;20173;-74
2023/11/07 03:43:35;;;;;;;1.85;0.77;;;10.40;99.90;;;;;;5035057;28;20227;-74
2023/11/07 03:46:01;;;;;;;1.50;0.73;;;10.40;99.90;;;;;;5051532;28;20165;-74
2023/11/07 03:48:27;;;;;;;1.20;0.60;;;10.40;99.90;;;;;;5022095;28;20653;-74
2023/11/07 03:50:55;;;;;;;1.83;0.77;;;10.40;99.90;;;;;;5072635;28;20188;-74
2023/11/07 03:53:21;;;;;;;1.95;0.80;;;10.40;99.90;;;;;;5047131;28;20184;-74
2023/11/07 03:55:48;;;;;;;1.50;0.73;;;10.40;99.90;;;;;;5049501;28;20196;-74
2023/11/07 03:58:13;;;;;;;2.00;0.88;;;10.40;99.90;;;;;;5062110;28;20200;-74
2023/11/07 04:00:40;;;;;;;1.50;0.67;;;10.50;99.90;;;;;;5048222;28;20291;-75
2023/11/07 04:03:06;;;;;;;1.73;0.70;;;10.50;99.90;;;;;;5054327;28;20169;-74
2023/11/07 04:05:32;;;;;;;2.05;0.90;;;10.50;99.90;;;;;;5072463;28;20514;-75
2023/11/07 04:07:59;;;;;;;2.07;0.70;;;10.60;99.90;;;;;;5054193;28;20207;-75
2023/11/07 04:10:25;;;;;;;3.28;0.65;;;10.60;99.90;;;;;;5045659;28;20185;-74
2023/11/07 04:12:51;;;;;;;2.05;0.70;;;10.60;99.90;;;;;;5035842;28;20193;-75
2023/11/07 04:15:17;;;;;;;2.75;0.80;;;10.60;99.90;;;;;;5069729;28;20212;-74
2023/11/07 04:17:46;;;;;;;1.95;0.80;;;10.60;99.90;;;;;;5054217;28;20188;-74
2023/11/07 04:20:13;;;;;;;1.67;0.60;;;10.70;99.90;;;;;;5070237;28;20180;-74
2023/11/07 04:22:40;;;;;;;2.35;0.90;;;10.70;99.90;;;;;;5047789;28;20184;-75
2023/11/07 04:25:06;;;;;;;3.03;0.77;;;10.70;99.90;;;;;;5053906;28;20688;-74
2023/11/07 04:27:34;;;;;;;3.80;0.77;;;10.70;99.90;;;;;;5072624;28;20263;-74
2023/11/07 04:30:01;;;;;;;1.70;0.70;;;10.70;99.90;;;;;;5053751;28;20183;-74
2023/11/07 04:32:26;;;;;;;2.35;0.70;;;10.70;99.90;;;;;;5025860;28;20177;-75
2023/11/07 04:34:52;;;;;;;1.97;0.70;;;10.80;99.90;;;;;;5058654;28;20226;-75
2023/11/07 04:37:18;;;;;;;2.10;0.83;;;10.80;99.90;;;;;;5053395;28;20171;-74
2023/11/07 04:39:44;;;;;;;1.50;0.80;;;10.80;99.90;;;;;;5065877;28;21159;-75
2023/11/07 04:42:10;;;;;;;5.17;1.00;;;10.80;99.90;;;;;;5068745;28;20175;-75
2023/11/07 04:44:36;;;;;;;1.65;0.70;;;10.80;99.90;;;;;;5040338;28;21058;-74
2023/11/07 04:47:05;;;;;;;2.43;0.90;;;10.80;99.90;;;;;;5050052;28;20212;-74
2023/11/07 04:49:31;;;;;;;2.15;1.33;;;10.80;99.90;;;;;;5021265;28;20200;-75
2023/11/07 04:51:58;;;;;;;3.08;0.88;;;10.80;99.90;;;;;;5053439;28;20215;-75
2023/11/07 04:54:27;;;;;;;1.83;0.80;;;10.90;99.90;;;;;;5020218;28;20660;-75
2023/11/07 04:56:54;;;;;;;2.42;1.00;;;10.90;99.90;;;;;;5046337;28;20216;-74
2023/11/07 04:59:23;;;;;;;1.80;0.80;;;10.90;99.90;;;;;;5051798;28;20196;-75
2023/11/07 05:01:56;;;;;;;2.67;0.85;;;10.90;99.90;;;;;;5053460;28;20182;-75
2023/11/07 05:04:22;;;;;;;2.20;0.75;;;10.90;99.90;;;;;;5071238;28;20180;-74
2023/11/07 05:06:47;;;;;;;1.77;0.80;;;10.90;99.90;;;;;;5071100;28;20179;-75
2023/11/07 05:09:14;;;;;;;2.13;0.80;;;11.00;99.90;;;;;;5036146;28;20299;-75
2023/11/07 05:11:40;;;;;;;1.75;0.88;;;11.00;99.90;;;;;;5053193;28;20587;-75
2023/11/07 05:14:09;;;;;;;2.30;0.70;;;11.00;99.90;;;;;;5052887;28;20180;-74
2023/11/07 05:16:36;;;;;;;1.85;0.70;;;11.00;99.90;;;;;;5044385;28;20257;-74
2023/11/07 05:19:03;;;;;;;2.38;0.85;;;11.10;99.90;;;;;;5063068;28;20696;-75
2023/11/07 05:21:29;;;;;;;2.63;0.80;;;11.10;99.90;;;;;;5044594;28;20179;-75
2023/11/07 05:23:55;;;;;;;1.98;0.80;;;11.10;99.90;;;;;;5071041;28;20512;-75
2023/11/07 05:26:22;;;;;;;2.67;1.10;;;11.20;99.90;;;;;;5052497;28;20183;-75
2023/11/07 05:28:49;;;;;;;3.10;1.40;;;11.20;99.90;;;;;;5039555;28;20230;-75
2023/11/07 05:31:16;;;;;;;2.25;1.00;;;11.20;99.90;;;;;;5035087;28;20179;-75
2023/11/07 05:33:44;;;;;;;2.95;1.00;;;11.30;99.90;;;;;;5046049;28;20230;-75
2023/11/07 05:36:10;;;;;;;2.30;1.00;;;11.30;99.90;;;;;;5052546;28;20207;-75
2023/11/07 05:38:35;;;;;;;2.50;0.90;;;11.40;99.90;;;;;;5048112;28;20192;-75
2023/11/07 05:41:01;;;;;;;1.80;1.00;;;11.40;99.90;;;;;;5035998;28;20642;-75
2023/11/07 05:43:27;;;;;;;2.40;1.02;;;11.40;99.90;;;;;;5054152;28;20526;-75
2023/11/07 05:45:53;;;;;;;2.40;0.80;;;11.50;99.90;;;;;;5070676;28;20210;-75
2023/11/07 05:48:24;;;;;;;2.73;0.80;;;11.60;99.90;;;;;;5052364;28;20200;-75
2023/11/07 05:50:50;;;;;;;1.90;0.80;;;11.60;99.90;;;;;;5052156;28;20214;-74
2023/11/07 05:53:17;;;;;;;1.40;0.60;;;11.70;99.90;;;;;;5070373;28;20180;-74
2023/11/07 05:55:44;;;;;;;1.95;0.80;;;11.70;99.90;;;;;;5048558;28;20224;-75
2023/11/07 05:58:10;;;;;;;3.92;0.90;;;11.70;99.90;;;;;;5052429;28;20203;-74
2023/11/07 06:00:37;;;;;;;2.05;0.70;;;11.80;99.90;;;;;;5052209;28;20175;-74
2023/11/07 06:03:02;;;;;;;1.70;0.90;;;11.80;99.90;;;;;;5052451;28;20175;-74
2023/11/07 06:05:28;;;;;;;2.83;0.90;;;11.90;99.90;;;;;;5070325;28;20579;-74
2023/11/07 06:07:55;;;;;;;1.60;0.80;;;11.90;99.90;;;;;;5035738;28;20624;-74
2023/11/07 06:10:22;;;;;;;1.75;0.60;;;11.90;99.90;;;;;;5052016;28;20601;-74
2023/11/07 06:12:48;;;;;;;1.40;0.70;;;12.00;99.90;;;;;;5070414;28;20200;-74
2023/11/07 06:15:14;;;;;;;2.70;0.67;;;12.00;99.90;;;;;;5035676;28;20637;-74
2023/11/07 06:17:40;;;;;;;1.67;0.70;;;12.00;99.90;;;;;;5035598;28;20188;-74
2023/11/07 06:20:06;;;;;;;2.27;0.70;;;12.00;99.90;;;;;;5035296;28;20279;-74
2023/11/07 06:22:32;;;;;;;2.30;0.90;;;12.00;99.90;;;;;;5035677;28;20597;-74
2023/11/07 06:24:58;;;;;;;1.57;0.63;;;12.00;99.90;;;;;;5070194;28;20261;-74
2023/11/07 06:27:23;;;;;;;2.50;0.80;;;12.00;99.90;;;;;;5049672;28;20563;-75
2023/11/07 06:29:49;;;;;;;1.70;0.73;;;12.00;99.90;;;;;;5037334;28;20710;-74
2023/11/07 06:32:15;;;;;;;2.27;0.80;;;12.00;99.90;;;;;;5070067;28;20241;-74
2023/11/07 06:34:41;;;;;;;1.73;0.70;;;12.00;99.90;;;;;;5029233;28;20200;-75
2023/11/07 06:37:07;;;;;;;2.57;0.83;;;12.00;99.90;;;;;;5036563;28;20208;-76
2023/11/07 06:39:33;;;;;;;1.70;0.90;;;12.00;99.90;;;;;;5047885;28;20608;-75
2023/11/07 06:41:59;;;;;;;1.83;0.83;;;12.00;99.90;;;;;;5039419;28;20180;-76
2023/11/07 06:44:26;;;;;;;2.30;0.80;;;12.00;99.90;;;;;;5052804;28;21005;-75
2023/11/07 06:46:51;;;;;;;2.53;0.90;;;12.10;99.90;;;;;;5052026;28;20724;-75
2023/11/07 06:49:18;;;;;;;1.40;0.67;;;12.10;99.90;;;;;;5051638;28;20290;-76
2023/11/07 06:51:44;;;;;;;2.50;0.82;;;12.10;99.90;;;;;;5043848;28;20579;-76
2023/11/07 06:54:10;;;;;;;1.70;0.60;;;12.10;99.90;;;;;;5069863;28;20685;-76
2023/11/07 06:56:37;;;;;;;2.15;0.70;;;12.10;99.90;;;;;;5039887;28;20687;-76
2023/11/07 06:59:02;;;;;;;1.67;0.60;;;12.20;99.90;;;;;;5039645;28;20273;-76
2023/11/07 07:01:28;;;;;;;1.83;0.60;;;12.20;99.90;;;;;;5051757;28;20632;-75
2023/11/07 07:03:54;;;;;;;2.50;0.60;;;12.20;99.90;;;;;;5028670;28;20209;-76
2023/11/07 07:06:23;;;;;;;2.47;0.60;;;12.20;99.90;;;;;;5049349;28;20181;-75
2023/11/07 07:08:49;;;;;;;2.00;0.50;;;12.30;99.90;;;;;;5073323;28;20184;-75
2023/11/07 07:11:15;;;;;;;1.20;0.50;;;12.30;99.90;;;;;;5046266;28;20187;-76
2023/11/07 07:13:41;;;;;;;1.50;0.50;;;12.30;99.90;;;;;;5051437;28;20256;-75
2023/11/07 07:16:08;;;;;;;2.00;0.60;;;12.40;99.90;;;;;;5037502;28;20217;-75
2023/11/07 07:18:39;;;;;;;1.40;0.50;;;12.40;99.90;;;;;;5036957;28;20285;-75
2023/11/07 07:21:05;;;;;;;1.30;0.50;;;12.40;99.90;;;;;;5053978;28;21002;-75
2023/11/07 07:23:35;;;;;;;2.20;0.60;;;12.40;99.90;;;;;;5063557;28;20177;-76
2023/11/07 07:26:09;;;;;;;1.30;0.50;;;12.50;99.90;;;;;;5029506;28;20180;-75
2023/11/07 07:28:38;;;;;;;2.10;0.60;;;12.50;99.90;;;;;;5034996;28;21030;-76
2023/11/07 07:31:06;;;;;;;1.60;0.50;;;12.60;99.90;;;;;;5053176;28;20184;-76
2023/11/07 07:33:36;;;;;;;1.33;0.60;;;12.60;99.90;;;;;;5018763;28;20181;-75
2023/11/07 07:36:04;;;;;;;1.48;0.50;;;12.70;99.90;;;;;;5044623;28;20203;-75
2023/11/07 07:38:31;;;;;;;1.65;0.50;;;12.70;99.90;;;;;;5044732;28;20247;-75
2023/11/07 07:40:59;;;;;;;1.52;0.60;;;12.70;99.90;;;;;;5034815;28;20177;-75
2023/11/07 07:43:27;;;;;;;1.20;0.40;;;12.70;99.90;;;;;;5031938;28;20197;-74
2023/11/07 07:45:53;;;;;;;1.30;0.50;;;12.80;99.90;;;;;;5034544;28;20173;-73
2023/11/07 07:48:19;;;;;;;2.95;0.50;;;12.90;99.90;;;;;;5034540;28;20227;-74
2023/11/07 07:50:46;;;;;;;1.40;0.60;;;13.00;99.90;;;;;;5033897;28;20169;-74
2023/11/07 07:53:15;;;;;;;1.47;0.60;;;13.00;99.90;;;;;;5034725;28;20165;-74
2023/11/07 07:55:44;;;;;;;1.30;0.50;;;13.20;99.90;;;;;;5034019;28;20647;-74
2023/11/07 07:58:18;;;;;;;1.30;0.50;;;13.20;99.90;;;;;;5052485;28;20973;-74
2023/11/07 08:00:52;;;;;;;1.43;0.60;;;13.30;99.90;;;;;;5030501;28;20574;-74
2023/11/07 08:03:18;;;;;;;1.55;0.60;;;13.40;99.90;;;;;;5052308;28;20630;-74
2023/11/07 08:05:44;;;;;;;1.57;0.60;;;13.50;99.90;;;;;;5052340;28;20682;-74
2023/11/07 08:08:12;;;;;;;1.50;0.60;;;13.60;99.90;;;;;;5034552;28;20642;-74
2023/11/07 08:10:38;;;;;;;1.70;0.70;;;13.70;99.90;;;;;;5050943;28;20575;-74
2023/11/07 08:13:07;;;;;;;1.30;0.70;;;13.70;99.90;;;;;;5052255;28;20641;-74
2023/11/07 08:15:36;;;;;;;2.77;1.00;;;13.80;99.90;;;;;;5017781;28;20730;-74
2023/11/07 08:18:05;;;;;;;1.93;0.80;;;14.00;99.90;;;;;;5033958;28;20639;-74
2023/11/07 08:20:35;;;;;;;2.87;0.80;;;14.00;99.90;;;;;;5034070;28;21156;-74
2023/11/07 08:23:04;;;;;;;2.80;0.80;;;14.20;99.90;;;;;;5034768;28;20606;-74
2023/11/07 08:25:30;;;;;;;1.63;0.70;;;14.30;99.90;;;;;;5051873;28;20587;-74
2023/11/07 08:27:55;;;;;;;1.60;0.70;;;14.40;99.90;;;;;;5033790;28;20677;-75
2023/11/07 08:30:22;;;;;;;1.70;0.60;;;14.50;99.90;;;;;;5034150;28;20554;-75
2023/11/07 08:32:49;;;;;;;1.60;0.70;;;14.50;99.90;;;;;;5052232;28;20268;-74
2023/11/07 08:35:15;;;;;;;1.93;0.63;;;14.50;99.90;;;;;;5051906;28;20990;-75
2023/11/07 08:37:41;;;;;;;3.87;0.90;;;14.50;99.90;;;;;;5025503;28;20603;-75
2023/11/07 08:40:08;;;;;;;1.60;0.50;;;14.50;99.90;;;;;;5038001;28;20599;-75
2023/11/07 08:42:35;;;;;;;1.70;0.67;;;14.50;99.90;;;;;;5017891;28;20572;-75
2023/11/07 08:45:01;;;;;;;1.50;0.60;;;14.60;99.90;;;;;;5051772;28;20595;-74
2023/11/07 08:47:28;;;;;;;2.90;0.70;;;14.60;99.90;;;;;;5040002;28;21149;-73
2023/11/07 08:49:57;;;;;;;1.50;0.70;;;14.60;99.90;;;;;;5051568;28;20538;-74
2023/11/07 08:52:25;;;;;;;2.23;0.70;;;14.70;99.90;;;;;;5033584;28;20584;-74
2023/11/07 08:54:52;;;;;;;3.13;0.70;;;14.70;99.90;;;;;;5033300;28;20714;-74
2023/11/07 08:57:18;;;;;;;1.93;0.67;;;14.80;99.90;;;;;;5037087;28;20596;-74
2023/11/07 08:59:44;;;;;;;1.47;0.53;;;14.80;99.90;;;;;;5040282;28;20997;-73
2023/11/07 09:02:13;;;;;;;2.23;0.60;;;14.80;99.90;;;;;;5033526;28;20649;-74
2023/11/07 09:04:39;;;;;;;1.30;0.50;;;15.00;99.90;;;;;;5033839;28;20588;-74
2023/11/07 09:07:06;;;;;;;1.70;0.60;;;15.20;99.90;;;;;;5034206;28;20595;-73
2023/11/07 09:09:34;;;;;;;1.40;0.50;;;15.30;99.90;;;;;;5033728;28;20619;-74
2023/11/07 09:12:00;;;;;;;2.20;0.60;;;15.40;99.90;;;;;;5033401;28;20599;-75
2023/11/07 09:14:27;;;;;;;1.73;0.50;;;15.50;99.90;;;;;;5033700;28;20643;-75
2023/11/07 09:16:53;;;;;;;1.47;0.50;;;15.60;99.90;;;;;;5026561;28;20583;-75
2023/11/07 09:19:19;;;;;;;2.83;0.60;;;15.60;99.90;;;;;;5049766;28;20684;-74
2023/11/07 09:21:45;;;;;;;2.37;0.60;;;15.70;99.90;;;;;;5016828;28;20767;-75
2023/11/07 09:24:10;;;;;;;2.33;0.60;;;15.70;99.90;;;;;;5032926;28;20724;-74
2023/11/07 09:26:36;;;;;;;1.40;0.50;;;15.80;99.90;;;;;;5032728;28;20693;-74
2023/11/07 09:29:08;;;;;;;1.50;0.60;;;15.80;99.90;;;;;;5031421;28;20250;-74
2023/11/07 09:31:34;;;;;;;2.20;0.57;;;15.80;99.90;;;;;;5049684;28;20267;-73
2023/11/07 09:33:59;;;;;;;2.67;0.50;;;15.90;99.90;;;;;;5056834;28;20669;-73
2023/11/07 09:36:25;;;;;;;1.30;0.57;;;16.30;99.90;;;;;;5067697;28;20607;-73
2023/11/07 09:38:51;;;;;;;5.13;0.50;;;16.70;99.90;;;;;;5052351;28;20192;-73
2023/11/07 09:41:17;;;;;;;1.40;0.57;;;17.00;99.90;;;;;;5044399;28;20703;-73
2023/11/07 09:43:45;;;;;;;2.00;0.50;;;17.30;99.90;;;;;;5033497;28;20173;-73
2023/11/07 09:46:11;;;;;;;1.80;0.50;;;17.50;99.90;;;;;;5038931;28;20603;-73
2023/11/07 09:48:37;;;;;;;1.23;0.50;;;17.60;99.90;;;;;;5051967;28;20627;-73
2023/11/07 09:51:04;;;;;;;1.60;0.57;;;17.60;99.90;;;;;;5052579;28;20589;-73
2023/11/07 09:53:31;;;;;;;1.63;0.50;;;17.60;99.90;;;;;;5044716;28;20216;-74
2023/11/07 09:55:58;;;;;;;1.77;0.53;;;17.60;99.90;;;;;;5039751;28;20622;-73
2023/11/07 09:58:28;;;;;;;1.63;0.50;;;17.60;99.90;;;;;;5043125;28;20618;-73
2023/11/07 10:00:58;;;;;;;2.47;0.70;;;17.60;99.90;;;;;;5049588;28;20586;-73
2023/11/07 10:03:24;;;;;;;1.30;0.50;;;17.60;99.90;;;;;;5049216;28;20584;-74
2023/11/07 10:05:51;;;;;;;2.63;0.50;;;17.60;99.90;;;;;;5052381;28;21333;-74
2023/11/07 10:08:22;;;;;;;1.87;0.60;;;17.60;99.90;;;;;;5036321;28;20672;-74
2023/11/07 10:11:11;;;;;;;3.53;0.50;;;17.60;99.90;;;;;;5036026;28;20571;-74
2023/11/07 10:13:37;;;;;;;2.97;0.60;;;17.70;99.90;;;;;;5061596;28;20954;-73
2023/11/07 10:16:06;;;;;;;1.23;0.50;;;17.70;99.90;;;;;;5051061;28;20626;-74
2023/11/07 10:18:48;;;;;;;2.00;0.50;;;17.70;99.90;;;;;;5066682;28;20614;-74
2023/11/07 10:21:15;;;;;;;2.10;0.57;;;17.70;99.90;;;;;;5050216;28;20572;-74
2023/11/07 10:23:41;;;;;;;3.00;0.60;;;17.70;99.90;;;;;;5034599;28;20586;-74
2023/11/07 10:26:15;;;;;;;2.43;0.50;;;17.60;99.90;;;;;;5048389;28;20575;-74
2023/11/07 10:28:41;;;;;;;2.33;0.57;;;17.60;99.90;;;;;;5069505;28;20622;-74
2023/11/07 10:31:20;;;;;;;2.23;0.67;;;17.50;99.90;;;;;;5052341;28;20587;-74
2023/11/07 10:33:46;;;;;;;1.50;0.50;;;17.40;99.90;;;;;;5048231;28;20602;-74
2023/11/07 10:36:12;;;;;;;2.03;0.60;;;17.30;99.90;;;;;;5046767;28;20635;-74
2023/11/07 10:38:41;;;;;;;1.90;0.60;;;17.20;99.90;;;;;;5051355;28;20201;-73
2023/11/07 10:41:07;;;;;;;2.50;0.60;;;17.10;99.90;;;;;;5053722;28;21163;-73
2023/11/07 10:43:40;;;;;;;2.57;0.80;;;17.10;99.90;;;;;;5056998;28;20618;-74
2023/11/07 10:46:08;;;;;;;2.37;0.80;;;17.00;99.90;;;;;;5050853;28;20180;-74
2023/11/07 10:48:38;;;;;;;2.43;1.00;;;16.90;99.90;;;;;;5049409;28;20618;-73
2023/11/07 10:51:05;;;;;;;2.87;1.50;;;16.90;99.90;;;;;;5049444;28;20587;-74
2023/11/07 10:53:35;;;;;;;3.93;2.27;;;16.80;99.90;;;;;;5054784;28;20586;-74
2023/11/07 10:56:13;;;;;;;3.30;1.60;;;16.80;99.90;;;;;;5058308;28;20982;-73
2023/11/07 10:59:00;;;;;;;6.03;2.00;;;16.80;99.90;;;;;;5055174;28;20725;-74
2023/11/07 11:01:39;;;;;;;3.80;1.60;;;16.80;99.90;;;;;;5055564;28;20593;-73
2023/11/07 11:04:11;;;;;;;4.23;1.33;;;16.70;99.90;;;;;;5055702;28;20591;-74
2023/11/07 11:06:39;;;;;;;2.73;1.90;;;16.80;99.90;;;;;;5047066;28;21148;-73
2023/11/07 11:09:10;;;;;;;3.47;1.43;;;16.70;99.90;;;;;;5038532;28;20628;-73
2023/11/07 11:11:37;;;;;;;3.33;1.40;;;16.60;99.90;;;;;;5020383;28;20671;-73
2023/11/07 11:14:08;;;;;;;2.23;0.90;;;16.60;99.90;;;;;;5037903;28;20637;-73
2023/11/07 11:16:46;;;;;;;4.90;1.27;;;16.50;99.90;;;;;;5034874;28;20655;-73
2023/11/07 11:19:40;;;;;;;3.40;1.33;;;16.40;99.90;;;;;;5046736;28;20632;-73
2023/11/07 11:22:29;;;;;;;2.83;1.10;;;16.40;99.90;;;;;;5026615;28;20583;-74
2023/11/07 11:25:16;;;;;;;4.03;1.40;;;16.30;99.90;;;;;;5038596;28;20644;-74
2023/11/07 11:27:59;;;;;;;4.17;1.00;;;16.20;99.90;;;;;;5051769;28;20625;-75
2023/11/07 11:30:28;;;;;;;3.10;0.90;;;16.20;99.90;;;;;;5044958;28;20988;-75
2023/11/07 11:33:07;;;;;;;1.47;0.70;;;16.10;99.90;;;;;;5037154;28;20593;-75
2023/11/07 11:35:38;;;;;;;2.00;0.70;;;16.10;99.90;;;;;;5041683;28;20719;-74
2023/11/07 11:38:15;;;;;;;3.30;0.60;;;16.10;99.90;;;;;;5070014;28;20689;-74
2023/11/07 11:40:59;;;;;;;2.83;0.60;;;16.10;99.90;;;;;;5049887;28;20607;-74
2023/11/07 11:43:32;;;;;;;4.40;0.80;;;16.10;99.90;;;;;;5037154;28;20583;-74
2023/11/07 11:46:11;;;;;;;1.63;0.60;;;16.00;99.90;;;;;;5056939;28;21018;-74
2023/11/07 11:48:49;;;;;;;6.40;0.80;;;16.00;99.90;;;;;;5037758;28;20622;-74
2023/11/07 11:51:40;;;;;;;2.77;0.70;;;15.90;99.90;;;;;;5072602;28;20624;-74
2023/11/07 11:54:34;;;;;;;3.60;0.70;;;15.80;99.90;;;;;;5059777;28;20954;-73
2023/11/07 11:57:00;;;;;;;1.83;0.60;;;15.80;99.90;;;;;;5065941;28;20594;-73
2023/11/07 11:59:46;;;;;;;1.83;0.60;;;15.60;99.90;;;;;;5069539;28;21170;-73
2023/11/07 12:02:12;;;;;;;2.63;0.60;;;15.50;99.90;;;;;;5030382;28;20622;-76
2023/11/07 12:04:41;;;;;;;1.30;0.53;;;15.50;99.90;;;;;;5054825;28;20579;-74
2023/11/07 12:07:07;;;;;;;2.23;0.50;;;15.50;99.90;;;;;;5047162;28;20618;-74
2023/11/07 12:09:33;;;;;;;2.47;0.50;;;15.50;99.90;;;;;;5072372;28;20649;-74
2023/11/07 12:12:00;;;;;;;1.70;0.50;;;15.50;99.90;;;;;;5045618;28;20637;-74
2023/11/07 12:14:26;;;;;;;1.60;0.60;;;15.50;99.90;;;;;;5054352;28;20630;-74
2023/11/07 12:16:59;;;;;;;1.87;0.53;;;15.50;99.90;;;;;;5036429;28;21119;-74
2023/11/07 12:19:25;;;;;;;1.90;0.53;;;15.50;99.90;;;;;;5013103;28;20944;-74
2023/11/07 12:21:55;;;;;;;2.87;1.00;;;15.50;99.90;;;;;;5054803;28;20571;-73
2023/11/07 12:24:22;;;;;;;3.27;1.17;;;15.70;99.90;;;;;;5045409;28;21106;-74
2023/11/07 12:26:49;;;;;;;5.57;3.10;;;15.80;99.90;;;;;;5041193;28;20698;-74
2023/11/07 12:29:29;;;;;;;6.20;3.20;;;15.90;99.90;;;;;;5039953;28;21270;-74
2023/11/07 12:31:55;;;;;;;4.77;2.33;;;15.90;99.90;;;;;;5020634;28;20579;-74
2023/11/07 12:34:35;;;;;;;3.40;1.67;;;16.00;99.90;;;;;;5049173;28;20664;-74
2023/11/07 12:37:10;;;;;;;2.27;1.00;;;16.00;99.90;;;;;;5039254;28;20593;-74
2023/11/07 12:39:37;;;;;;;2.67;0.80;;;16.00;99.90;;;;;;5063321;28;20967;-74
2023/11/07 12:42:04;;;;;;;2.87;1.00;;;16.00;99.90;;;;;;5040554;28;21170;-73
2023/11/07 12:44:30;;;;;;;1.63;0.67;;;15.90;99.90;;;;;;5025717;28;20611;-74
2023/11/07 12:46:56;;;;;;;2.60;0.70;;;15.80;99.90;;;;;;5033984;28;20931;-74
2023/11/07 12:49:23;;;;;;;2.23;1.00;;;15.80;99.90;;;;;;5045031;28;20199;-74
2023/11/07 12:51:49;;;;;;;2.40;0.70;;;15.80;99.90;;;;;;5037459;28;21169;-74